18:56
Airports
History
Links
Donate
Help keep this website running!
PayPal
Bitcoin
This page is community maintained. The information is intended for PC simulator navigation or reference.
Always use approved charts for navigation.
BGJN
Ilulissat/Jakobshavn
Ilulissat/Jakobshavn (BGJN)
Ilulissat, Kitaa, Greenland
(C)
Lat/Lng:69° 14' 39.98" N / 51° 3' 44" W
69.244438 / -51.062222
Elevation:95'ft / 29mMSL
ID / ICAO:BGJN
Runways:1
Longest:08-26
Asphalt 837m / 2,746ft
Controlled:Yes
METAR18:50 GMT 2017-09-19
Altimeter: 30.06
Visibility: 6.2 statute miles
Wind: 4 knots (from 300°)
Temp: 1°c / 34°f
Humidity: 59.4%

METAR: BGJN 191850Z 30004KT 270V340 9999 SCT080 01/M06 Q1018

(Powered by phpweather)
Nearby VORs <50NM
Nearby NDBs
Runway 08 / 26
Dimensions:836.9 x 29.9m 2746' x 98'ft
Surface:Asphalt
Edge Lights:Medium intensity
Runway 08 [A]Runway 26 [B]
Heading:035°TH 215°TH
Lat:
Lng:
69° 14' 28.77"N
51° 4' 6.13"W
69° 14' 51.18"N
51° 3' 21.86"W
ALS:MALSMALS
User Notes and Comments
69° 14' 39.98" N / 51° 3' 44" W
Distance To
Airport ID:
Nearby Airports
(C) Aasiaat 55.9 NM
BGAA SW 229°
(C) Qaarsut Ummannaq 109.9 NM
BGUQ NNW 339°
(C) Kangerlussuaq 154.5 NM
BGSF ( WX ) S 176°
(C) Sisimiut 172.7 NM
BGSS SSW 203°
(C) Maniitsoq 268.2 NM
BGMA S 190°
(C) Upernavik 269.9 NM
BGUK NNW 335°
4 QIKIQTARJUAQ 349.3 NM
CYVM WSW 250°
VFR Chart
Flight Planning at SkyVector.com